sensor_id;sensor_type;location;lat;lon;timestamp;temperature;humidity
15543;DHT22;7873;52.230;12.856;2023-07-28T00:02:02;22.90;52.10
15543;DHT22;7873;52.230;12.856;2023-07-28T00:04:29;22.90;52.30
15543;DHT22;7873;52.230;12.856;2023-07-28T00:06:55;23.00;52.20
15543;DHT22;7873;52.230;12.856;2023-07-28T00:09:22;22.90;52.20
15543;DHT22;7873;52.230;12.856;2023-07-28T00:11:49;22.90;52.10
15543;DHT22;7873;52.230;12.856;2023-07-28T00:14:15;23.00;52.10
15543;DHT22;7873;52.230;12.856;2023-07-28T00:16:44;22.90;52.20
15543;DHT22;7873;52.230;12.856;2023-07-28T00:19:10;23.00;52.20
15543;DHT22;7873;52.230;12.856;2023-07-28T00:21:37;22.90;52.20
15543;DHT22;7873;52.230;12.856;2023-07-28T00:24:04;22.90;52.30
15543;DHT22;7873;52.230;12.856;2023-07-28T00:26:31;22.90;52.20
15543;DHT22;7873;52.230;12.856;2023-07-28T00:28:58;22.90;52.30
15543;DHT22;7873;52.230;12.856;2023-07-28T00:31:24;22.90;52.20
15543;DHT22;7873;52.230;12.856;2023-07-28T00:33:52;22.90;52.10
15543;DHT22;7873;52.230;12.856;2023-07-28T00:36:19;22.90;52.20
15543;DHT22;7873;52.230;12.856;2023-07-28T00:38:46;22.90;52.20
15543;DHT22;7873;52.230;12.856;2023-07-28T00:41:13;22.90;52.20
15543;DHT22;7873;52.230;12.856;2023-07-28T00:43:39;22.90;52.10
15543;DHT22;7873;52.230;12.856;2023-07-28T00:46:06;22.90;52.20
15543;DHT22;7873;52.230;12.856;2023-07-28T00:48:34;22.90;52.10
15543;DHT22;7873;52.230;12.856;2023-07-28T00:51:02;22.90;52.10
15543;DHT22;7873;52.230;12.856;2023-07-28T00:53:29;23.00;52.00
15543;DHT22;7873;52.230;12.856;2023-07-28T00:55:57;22.90;52.10
15543;DHT22;7873;52.230;12.856;2023-07-28T00:58:23;22.90;52.00
15543;DHT22;7873;52.230;12.856;2023-07-28T01:00:50;22.90;52.00
15543;DHT22;7873;52.230;12.856;2023-07-28T01:03:17;22.90;52.10
15543;DHT22;7873;52.230;12.856;2023-07-28T01:05:48;22.90;52.10
15543;DHT22;7873;52.230;12.856;2023-07-28T01:08:22;22.90;52.10
15543;DHT22;7873;52.230;12.856;2023-07-28T01:10:53;22.90;52.00
15543;DHT22;7873;52.230;12.856;2023-07-28T01:13:20;22.90;52.00
15543;DHT22;7873;52.230;12.856;2023-07-28T01:15:47;22.90;52.00
15543;DHT22;7873;52.230;12.856;2023-07-28T01:18:13;22.90;52.10
15543;DHT22;7873;52.230;12.856;2023-07-28T01:20:40;22.90;52.10
15543;DHT22;7873;52.230;12.856;2023-07-28T01:23:12;22.90;52.10
15543;DHT22;7873;52.230;12.856;2023-07-28T01:25:46;22.90;51.90
15543;DHT22;7873;52.230;12.856;2023-07-28T01:28:17;22.90;51.90
15543;DHT22;7873;52.230;12.856;2023-07-28T01:30:45;22.90;51.80
15543;DHT22;7873;52.230;12.856;2023-07-28T01:33:12;22.90;51.90
15543;DHT22;7873;52.230;12.856;2023-07-28T01:35:39;22.90;51.90
15543;DHT22;7873;52.230;12.856;2023-07-28T01:38:05;22.90;51.90
15543;DHT22;7873;52.230;12.856;2023-07-28T01:40:32;22.90;51.90
15543;DHT22;7873;52.230;12.856;2023-07-28T01:42:59;22.90;51.80
15543;DHT22;7873;52.230;12.856;2023-07-28T01:45:27;22.90;51.80
15543;DHT22;7873;52.230;12.856;2023-07-28T01:47:53;22.90;51.80
15543;DHT22;7873;52.230;12.856;2023-07-28T01:50:20;22.90;51.90
15543;DHT22;7873;52.230;12.856;2023-07-28T01:52:47;22.90;51.90
15543;DHT22;7873;52.230;12.856;2023-07-28T01:55:13;22.90;51.90
15543;DHT22;7873;52.230;12.856;2023-07-28T01:57:40;22.90;51.90
15543;DHT22;7873;52.230;12.856;2023-07-28T02:00:17;22.90;52.60
15543;DHT22;7873;52.230;12.856;2023-07-28T02:02:45;22.90;51.90
15543;DHT22;7873;52.230;12.856;2023-07-28T02:05:12;22.90;51.90
15543;DHT22;7873;52.230;12.856;2023-07-28T02:07:39;22.90;51.90
15543;DHT22;7873;52.230;12.856;2023-07-28T02:10:06;22.90;51.80
15543;DHT22;7873;52.230;12.856;2023-07-28T02:12:33;22.90;51.80
15543;DHT22;7873;52.230;12.856;2023-07-28T02:14:59;22.90;51.80
15543;DHT22;7873;52.230;12.856;2023-07-28T02:17:26;22.90;51.80
15543;DHT22;7873;52.230;12.856;2023-07-28T02:19:54;22.90;51.80
15543;DHT22;7873;52.230;12.856;2023-07-28T02:22:21;22.90;51.90
15543;DHT22;7873;52.230;12.856;2023-07-28T02:24:48;22.90;51.80
15543;DHT22;7873;52.230;12.856;2023-07-28T02:27:14;22.80;51.90
15543;DHT22;7873;52.230;12.856;2023-07-28T02:29:41;22.90;51.90
15543;DHT22;7873;52.230;12.856;2023-07-28T02:32:08;22.90;51.70
15543;DHT22;7873;52.230;12.856;2023-07-28T02:34:35;22.80;51.70
15543;DHT22;7873;52.230;12.856;2023-07-28T02:37:03;22.90;51.90
15543;DHT22;7873;52.230;12.856;2023-07-28T02:39:30;22.80;51.60
15543;DHT22;7873;52.230;12.856;2023-07-28T02:41:56;22.90;51.80
15543;DHT22;7873;52.230;12.856;2023-07-28T02:44:23;22.80;51.80
15543;DHT22;7873;52.230;12.856;2023-07-28T02:46:49;22.90;51.90
15543;DHT22;7873;52.230;12.856;2023-07-28T02:49:16;22.90;51.80
15543;DHT22;7873;52.230;12.856;2023-07-28T02:51:43;22.90;51.70
15543;DHT22;7873;52.230;12.856;2023-07-28T02:54:11;22.90;51.70
15543;DHT22;7873;52.230;12.856;2023-07-28T02:56:37;22.80;51.80
15543;DHT22;7873;52.230;12.856;2023-07-28T02:59:04;22.80;52.10
15543;DHT22;7873;52.230;12.856;2023-07-28T03:01:31;22.80;51.70
15543;DHT22;7873;52.230;12.856;2023-07-28T03:03:58;22.80;51.80
15543;DHT22;7873;52.230;12.856;2023-07-28T03:06:25;22.80;52.60
15543;DHT22;7873;52.230;12.856;2023-07-28T03:08:52;22.70;52.20
15543;DHT22;7873;52.230;12.856;2023-07-28T03:11:20;22.70;52.30
15543;DHT22;7873;52.230;12.856;2023-07-28T03:13:47;22.70;52.50
15543;DHT22;7873;52.230;12.856;2023-07-28T03:16:13;22.70;52.50
15543;DHT22;7873;52.230;12.856;2023-07-28T03:18:40;22.70;52.60
15543;DHT22;7873;52.230;12.856;2023-07-28T03:21:08;22.70;52.50
15543;DHT22;7873;52.230;12.856;2023-07-28T03:23:35;22.70;52.60
15543;DHT22;7873;52.230;12.856;2023-07-28T03:26:01;22.80;52.60
15543;DHT22;7873;52.230;12.856;2023-07-28T03:28:29;22.70;52.60
15543;DHT22;7873;52.230;12.856;2023-07-28T03:30:56;22.80;52.50
15543;DHT22;7873;52.230;12.856;2023-07-28T03:33:23;22.70;52.60
15543;DHT22;7873;52.230;12.856;2023-07-28T03:35:49;22.70;52.80
15543;DHT22;7873;52.230;12.856;2023-07-28T03:38:16;22.70;52.80
15543;DHT22;7873;52.230;12.856;2023-07-28T03:40:43;22.70;52.90
15543;DHT22;7873;52.230;12.856;2023-07-28T03:43:10;22.70;53.20
15543;DHT22;7873;52.230;12.856;2023-07-28T03:45:38;22.70;53.30
15543;DHT22;7873;52.230;12.856;2023-07-28T03:48:05;22.70;53.30
15543;DHT22;7873;52.230;12.856;2023-07-28T03:50:32;22.70;53.00
15543;DHT22;7873;52.230;12.856;2023-07-28T03:52:58;22.70;53.30
15543;DHT22;7873;52.230;12.856;2023-07-28T03:55:25;22.70;53.50
15543;DHT22;7873;52.230;12.856;2023-07-28T03:57:51;22.80;53.20
15543;DHT22;7873;52.230;12.856;2023-07-28T04:00:18;22.90;53.20
15543;DHT22;7873;52.230;12.856;2023-07-28T04:02:46;22.90;52.90
15543;DHT22;7873;52.230;12.856;2023-07-28T04:05:13;23.00;52.80
15543;DHT22;7873;52.230;12.856;2023-07-28T04:07:40;23.00;52.70
15543;DHT22;7873;52.230;12.856;2023-07-28T04:10:07;23.00;52.70
15543;DHT22;7873;52.230;12.856;2023-07-28T04:12:34;23.00;52.70
15543;DHT22;7873;52.230;12.856;2023-07-28T04:15:00;23.00;52.60
15543;DHT22;7873;52.230;12.856;2023-07-28T04:17:27;23.00;52.60
15543;DHT22;7873;52.230;12.856;2023-07-28T04:19:55;22.90;52.90
15543;DHT22;7873;52.230;12.856;2023-07-28T04:22:23;22.90;52.60
15543;DHT22;7873;52.230;12.856;2023-07-28T04:24:50;23.00;52.60
15543;DHT22;7873;52.230;12.856;2023-07-28T04:27:16;23.00;52.60
15543;DHT22;7873;52.230;12.856;2023-07-28T04:29:43;22.90;52.20
15543;DHT22;7873;52.230;12.856;2023-07-28T04:32:10;22.90;52.40
15543;DHT22;7873;52.230;12.856;2023-07-28T04:34:36;23.00;52.20
15543;DHT22;7873;52.230;12.856;2023-07-28T04:37:05;23.00;52.10
15543;DHT22;7873;52.230;12.856;2023-07-28T04:39:31;22.90;52.50
15543;DHT22;7873;52.230;12.856;2023-07-28T04:41:58;22.90;52.10
15543;DHT22;7873;52.230;12.856;2023-07-28T04:44:25;22.90;52.40
15543;DHT22;7873;52.230;12.856;2023-07-28T04:46:51;22.90;52.10
15543;DHT22;7873;52.230;12.856;2023-07-28T04:49:18;22.90;52.00
15543;DHT22;7873;52.230;12.856;2023-07-28T04:51:46;23.00;52.10
15543;DHT22;7873;52.230;12.856;2023-07-28T04:54:14;22.90;52.10
15543;DHT22;7873;52.230;12.856;2023-07-28T04:56:41;23.00;52.10
15543;DHT22;7873;52.230;12.856;2023-07-28T04:59:08;22.90;52.10
15543;DHT22;7873;52.230;12.856;2023-07-28T05:01:34;22.90;52.30
15543;DHT22;7873;52.230;12.856;2023-07-28T05:04:01;22.90;52.10
15543;DHT22;7873;52.230;12.856;2023-07-28T05:06:28;22.90;52.00
15543;DHT22;7873;52.230;12.856;2023-07-28T05:08:54;22.90;52.00
15543;DHT22;7873;52.230;12.856;2023-07-28T05:11:22;22.90;51.90
15543;DHT22;7873;52.230;12.856;2023-07-28T05:13:49;22.90;51.90
15543;DHT22;7873;52.230;12.856;2023-07-28T05:16:16;23.00;51.90
15543;DHT22;7873;52.230;12.856;2023-07-28T05:18:42;22.90;51.90
15543;DHT22;7873;52.230;12.856;2023-07-28T05:21:09;22.90;51.90
15543;DHT22;7873;52.230;12.856;2023-07-28T05:23:36;22.90;51.90
15543;DHT22;7873;52.230;12.856;2023-07-28T05:26:02;22.80;51.90
15543;DHT22;7873;52.230;12.856;2023-07-28T05:28:33;22.80;52.60
15543;DHT22;7873;52.230;12.856;2023-07-28T05:31:03;22.80;53.50
15543;DHT22;7873;52.230;12.856;2023-07-28T05:33:30;22.70;53.90
15543;DHT22;7873;52.230;12.856;2023-07-28T05:36:00;22.70;54.00
15543;DHT22;7873;52.230;12.856;2023-07-28T05:38:27;22.70;54.60
15543;DHT22;7873;52.230;12.856;2023-07-28T05:40:57;22.70;54.90
15543;DHT22;7873;52.230;12.856;2023-07-28T05:43:25;22.70;55.20
15543;DHT22;7873;52.230;12.856;2023-07-28T05:45:53;22.70;55.60
15543;DHT22;7873;52.230;12.856;2023-07-28T05:48:20;22.80;56.10
15543;DHT22;7873;52.230;12.856;2023-07-28T05:50:47;22.90;55.40
15543;DHT22;7873;52.230;12.856;2023-07-28T05:53:13;23.20;54.90
15543;DHT22;7873;52.230;12.856;2023-07-28T05:55:40;23.20;54.40
15543;DHT22;7873;52.230;12.856;2023-07-28T05:58:07;23.20;54.70
15543;DHT22;7873;52.230;12.856;2023-07-28T06:00:33;23.20;55.20
15543;DHT22;7873;52.230;12.856;2023-07-28T06:03:01;23.30;55.00
15543;DHT22;7873;52.230;12.856;2023-07-28T06:05:29;23.20;55.20
15543;DHT22;7873;52.230;12.856;2023-07-28T06:07:55;23.30;55.20
15543;DHT22;7873;52.230;12.856;2023-07-28T06:10:22;23.20;55.40
15543;DHT22;7873;52.230;12.856;2023-07-28T06:12:48;23.30;55.00
15543;DHT22;7873;52.230;12.856;2023-07-28T06:15:16;23.20;55.50
15543;DHT22;7873;52.230;12.856;2023-07-28T06:17:43;23.30;55.90
15543;DHT22;7873;52.230;12.856;2023-07-28T06:20:11;23.30;55.40
15543;DHT22;7873;52.230;12.856;2023-07-28T06:22:38;23.20;56.00
15543;DHT22;7873;52.230;12.856;2023-07-28T06:25:05;23.30;55.30
15543;DHT22;7873;52.230;12.856;2023-07-28T06:27:32;23.30;55.10
15543;DHT22;7873;52.230;12.856;2023-07-28T06:29:59;23.30;55.00
15543;DHT22;7873;52.230;12.856;2023-07-28T06:32:25;23.30;54.60
15543;DHT22;7873;52.230;12.856;2023-07-28T06:34:53;23.30;55.00
15543;DHT22;7873;52.230;12.856;2023-07-28T06:37:21;23.30;55.20
15543;DHT22;7873;52.230;12.856;2023-07-28T06:39:48;23.30;54.90
15543;DHT22;7873;52.230;12.856;2023-07-28T06:42:14;23.40;54.70
15543;DHT22;7873;52.230;12.856;2023-07-28T06:44:41;23.30;54.50
15543;DHT22;7873;52.230;12.856;2023-07-28T06:47:08;23.40;54.60
15543;DHT22;7873;52.230;12.856;2023-07-28T06:49:35;23.50;54.30
15543;DHT22;7873;52.230;12.856;2023-07-28T06:52:02;23.60;54.10
15543;DHT22;7873;52.230;12.856;2023-07-28T06:54:30;23.50;54.20
15543;DHT22;7873;52.230;12.856;2023-07-28T06:56:57;23.30;54.60
15543;DHT22;7873;52.230;12.856;2023-07-28T06:59:23;23.30;54.60
15543;DHT22;7873;52.230;12.856;2023-07-28T07:01:50;23.30;54.60
15543;DHT22;7873;52.230;12.856;2023-07-28T07:04:17;23.20;55.00
15543;DHT22;7873;52.230;12.856;2023-07-28T07:06:43;23.20;55.10
15543;DHT22;7873;52.230;12.856;2023-07-28T07:09:10;23.10;55.90
15543;DHT22;7873;52.230;12.856;2023-07-28T07:11:41;23.10;56.20
15543;DHT22;7873;52.230;12.856;2023-07-28T07:14:07;23.10;56.60
15543;DHT22;7873;52.230;12.856;2023-07-28T07:16:34;23.10;56.50
15543;DHT22;7873;52.230;12.856;2023-07-28T07:19:01;23.10;57.00
15543;DHT22;7873;52.230;12.856;2023-07-28T07:21:29;23.10;56.90
15543;DHT22;7873;52.230;12.856;2023-07-28T07:23:56;23.10;56.10
15543;DHT22;7873;52.230;12.856;2023-07-28T07:26:23;23.10;55.80
15543;DHT22;7873;52.230;12.856;2023-07-28T07:28:51;23.10;56.80
15543;DHT22;7873;52.230;12.856;2023-07-28T07:31:18;23.10;56.10
15543;DHT22;7873;52.230;12.856;2023-07-28T07:33:44;23.10;55.80
15543;DHT22;7873;52.230;12.856;2023-07-28T07:36:12;23.10;56.60
15543;DHT22;7873;52.230;12.856;2023-07-28T07:38:38;23.10;55.90
15543;DHT22;7873;52.230;12.856;2023-07-28T07:41:06;23.10;56.20
15543;DHT22;7873;52.230;12.856;2023-07-28T07:43:33;23.00;56.60
15543;DHT22;7873;52.230;12.856;2023-07-28T07:46:01;23.00;56.50
15543;DHT22;7873;52.230;12.856;2023-07-28T07:48:28;23.00;57.30
15543;DHT22;7873;52.230;12.856;2023-07-28T07:50:55;23.00;57.20
15543;DHT22;7873;52.230;12.856;2023-07-28T07:53:22;23.10;56.90
15543;DHT22;7873;52.230;12.856;2023-07-28T07:55:48;23.00;56.80
15543;DHT22;7873;52.230;12.856;2023-07-28T07:58:15;23.10;57.30
15543;DHT22;7873;52.230;12.856;2023-07-28T08:00:42;23.10;57.30
15543;DHT22;7873;52.230;12.856;2023-07-28T08:03:11;23.10;57.10
15543;DHT22;7873;52.230;12.856;2023-07-28T08:05:38;23.10;57.20
15543;DHT22;7873;52.230;12.856;2023-07-28T08:08:05;23.10;56.90
15543;DHT22;7873;52.230;12.856;2023-07-28T08:10:32;23.00;56.90
15543;DHT22;7873;52.230;12.856;2023-07-28T08:12:59;23.00;56.90
15543;DHT22;7873;52.230;12.856;2023-07-28T08:15:26;22.90;56.90
15543;DHT22;7873;52.230;12.856;2023-07-28T08:17:53;22.90;56.90
15543;DHT22;7873;52.230;12.856;2023-07-28T08:20:21;22.80;57.00
15543;DHT22;7873;52.230;12.856;2023-07-28T08:22:47;22.80;57.00
15543;DHT22;7873;52.230;12.856;2023-07-28T08:25:14;22.90;56.90
15543;DHT22;7873;52.230;12.856;2023-07-28T08:27:41;22.80;56.90
15543;DHT22;7873;52.230;12.856;2023-07-28T08:30:08;22.80;56.80
15543;DHT22;7873;52.230;12.856;2023-07-28T08:32:36;22.80;56.90
15543;DHT22;7873;52.230;12.856;2023-07-28T08:35:03;22.80;56.90
15543;DHT22;7873;52.230;12.856;2023-07-28T08:37:31;22.80;56.70
15543;DHT22;7873;52.230;12.856;2023-07-28T08:39:58;22.80;56.70
15543;DHT22;7873;52.230;12.856;2023-07-28T08:42:24;22.90;56.60
15543;DHT22;7873;52.230;12.856;2023-07-28T08:44:51;23.00;56.40
15543;DHT22;7873;52.230;12.856;2023-07-28T08:47:18;22.90;56.40
15543;DHT22;7873;52.230;12.856;2023-07-28T08:49:45;22.90;56.50
15543;DHT22;7873;52.230;12.856;2023-07-28T08:52:14;22.90;56.40
15543;DHT22;7873;52.230;12.856;2023-07-28T08:54:44;22.90;56.40
15543;DHT22;7873;52.230;12.856;2023-07-28T08:57:11;22.80;56.60
15543;DHT22;7873;52.230;12.856;2023-07-28T08:59:38;22.80;56.80
15543;DHT22;7873;52.230;12.856;2023-07-28T09:02:08;22.80;56.90
15543;DHT22;7873;52.230;12.856;2023-07-28T09:04:35;22.80;56.70
15543;DHT22;7873;52.230;12.856;2023-07-28T09:07:04;22.80;56.70
15543;DHT22;7873;52.230;12.856;2023-07-28T09:09:31;22.80;56.70
15543;DHT22;7873;52.230;12.856;2023-07-28T09:12:00;22.80;56.60
15543;DHT22;7873;52.230;12.856;2023-07-28T09:14:27;22.80;56.60
15543;DHT22;7873;52.230;12.856;2023-07-28T09:16:53;22.80;56.50
15543;DHT22;7873;52.230;12.856;2023-07-28T09:19:21;22.90;56.50
15543;DHT22;7873;52.230;12.856;2023-07-28T09:21:56;22.90;56.50
15543;DHT22;7873;52.230;12.856;2023-07-28T09:24:28;22.80;56.40
15543;DHT22;7873;52.230;12.856;2023-07-28T09:26:56;22.90;56.40
15543;DHT22;7873;52.230;12.856;2023-07-28T09:29:26;23.00;56.40
15543;DHT22;7873;52.230;12.856;2023-07-28T09:31:53;22.90;56.40
15543;DHT22;7873;52.230;12.856;2023-07-28T09:34:28;22.90;56.30
15543;DHT22;7873;52.230;12.856;2023-07-28T09:36:55;22.90;56.30
15543;DHT22;7873;52.230;12.856;2023-07-28T09:39:23;22.90;56.40
15543;DHT22;7873;52.230;12.856;2023-07-28T09:41:50;22.90;56.40
15543;DHT22;7873;52.230;12.856;2023-07-28T09:44:17;23.00;56.30
15543;DHT22;7873;52.230;12.856;2023-07-28T09:46:49;23.00;56.30
15543;DHT22;7873;52.230;12.856;2023-07-28T09:49:19;22.90;56.30
15543;DHT22;7873;52.230;12.856;2023-07-28T09:51:48;22.90;56.60
15543;DHT22;7873;52.230;12.856;2023-07-28T09:54:20;22.90;56.70
15543;DHT22;7873;52.230;12.856;2023-07-28T09:56:53;22.80;56.80
15543;DHT22;7873;52.230;12.856;2023-07-28T09:59:24;22.80;56.90
15543;DHT22;7873;52.230;12.856;2023-07-28T10:01:55;22.80;56.70
15543;DHT22;7873;52.230;12.856;2023-07-28T10:04:23;22.80;56.00
15543;DHT22;7873;52.230;12.856;2023-07-28T10:06:50;22.80;56.80
15543;DHT22;7873;52.230;12.856;2023-07-28T10:09:21;22.80;56.80
15543;DHT22;7873;52.230;12.856;2023-07-28T10:11:50;22.90;56.50
15543;DHT22;7873;52.230;12.856;2023-07-28T10:14:25;22.90;56.40
15543;DHT22;7873;52.230;12.856;2023-07-28T10:16:52;22.90;56.60
15543;DHT22;7873;52.230;12.856;2023-07-28T10:19:21;23.00;55.90
15543;DHT22;7873;52.230;12.856;2023-07-28T10:21:47;23.20;55.90
15543;DHT22;7873;52.230;12.856;2023-07-28T10:24:14;23.30;55.70
15543;DHT22;7873;52.230;12.856;2023-07-28T10:26:41;23.30;55.80
15543;DHT22;7873;52.230;12.856;2023-07-28T10:29:10;23.30;55.70
15543;DHT22;7873;52.230;12.856;2023-07-28T10:31:48;23.50;55.50
15543;DHT22;7873;52.230;12.856;2023-07-28T10:34:16;23.60;55.40
15543;DHT22;7873;52.230;12.856;2023-07-28T10:36:44;23.60;55.10
15543;DHT22;7873;52.230;12.856;2023-07-28T10:39:13;23.70;54.90
15543;DHT22;7873;52.230;12.856;2023-07-28T10:41:59;23.80;54.80
15543;DHT22;7873;52.230;12.856;2023-07-28T10:44:28;23.70;54.70
15543;DHT22;7873;52.230;12.856;2023-07-28T10:46:55;23.70;55.00
15543;DHT22;7873;52.230;12.856;2023-07-28T10:49:23;23.60;55.10
15543;DHT22;7873;52.230;12.856;2023-07-28T10:51:51;23.50;55.30
15543;DHT22;7873;52.230;12.856;2023-07-28T10:54:18;23.50;55.20
15543;DHT22;7873;52.230;12.856;2023-07-28T10:56:46;23.40;55.70
15543;DHT22;7873;52.230;12.856;2023-07-28T10:59:13;23.30;56.20
15543;DHT22;7873;52.230;12.856;2023-07-28T11:01:41;23.20;56.40
15543;DHT22;7873;52.230;12.856;2023-07-28T11:04:12;23.10;56.50
15543;DHT22;7873;52.230;12.856;2023-07-28T11:06:41;23.10;56.50
15543;DHT22;7873;52.230;12.856;2023-07-28T11:09:10;23.10;56.40
15543;DHT22;7873;52.230;12.856;2023-07-28T11:11:38;23.10;56.30
15543;DHT22;7873;52.230;12.856;2023-07-28T11:14:06;23.10;56.20
15543;DHT22;7873;52.230;12.856;2023-07-28T11:16:34;23.10;56.20
15543;DHT22;7873;52.230;12.856;2023-07-28T11:19:04;23.10;56.10
15543;DHT22;7873;52.230;12.856;2023-07-28T11:21:35;23.10;56.10
15543;DHT22;7873;52.230;12.856;2023-07-28T11:24:02;23.10;56.10
15543;DHT22;7873;52.230;12.856;2023-07-28T11:26:31;23.10;56.10
15543;DHT22;7873;52.230;12.856;2023-07-28T11:28:58;23.10;56.10
15543;DHT22;7873;52.230;12.856;2023-07-28T11:31:25;23.00;56.00
15543;DHT22;7873;52.230;12.856;2023-07-28T11:33:53;23.00;56.10
15543;DHT22;7873;52.230;12.856;2023-07-28T11:36:23;23.00;56.10
15543;DHT22;7873;52.230;12.856;2023-07-28T11:38:50;23.00;56.20
15543;DHT22;7873;52.230;12.856;2023-07-28T11:41:18;23.00;55.90
15543;DHT22;7873;52.230;12.856;2023-07-28T11:43:47;23.00;55.70
15543;DHT22;7873;52.230;12.856;2023-07-28T11:46:37;23.00;55.70
15543;DHT22;7873;52.230;12.856;2023-07-28T11:49:09;23.00;55.80
15543;DHT22;7873;52.230;12.856;2023-07-28T11:51:37;23.00;55.70
15543;DHT22;7873;52.230;12.856;2023-07-28T11:54:05;23.00;55.90
15543;DHT22;7873;52.230;12.856;2023-07-28T11:56:32;23.10;55.70
15543;DHT22;7873;52.230;12.856;2023-07-28T11:59:01;23.10;56.70
15543;DHT22;7873;52.230;12.856;2023-07-28T12:01:28;23.00;57.20
15543;DHT22;7873;52.230;12.856;2023-07-28T12:03:55;23.00;57.50
15543;DHT22;7873;52.230;12.856;2023-07-28T12:06:21;23.00;57.30
15543;DHT22;7873;52.230;12.856;2023-07-28T12:08:48;22.90;57.20
15543;DHT22;7873;52.230;12.856;2023-07-28T12:11:15;22.90;57.10
15543;DHT22;7873;52.230;12.856;2023-07-28T12:13:49;22.90;57.20
15543;DHT22;7873;52.230;12.856;2023-07-28T12:19:09;23.00;56.60
15543;DHT22;7873;52.230;12.856;2023-07-28T12:21:36;22.90;56.40
15543;DHT22;7873;52.230;12.856;2023-07-28T12:24:03;23.00;56.20
15543;DHT22;7873;52.230;12.856;2023-07-28T12:26:29;23.00;56.20
15543;DHT22;7873;52.230;12.856;2023-07-28T12:28:56;23.00;56.10
15543;DHT22;7873;52.230;12.856;2023-07-28T12:31:23;23.00;56.10
15543;DHT22;7873;52.230;12.856;2023-07-28T12:33:49;23.00;55.90
15543;DHT22;7873;52.230;12.856;2023-07-28T12:36:17;23.00;55.80
15543;DHT22;7873;52.230;12.856;2023-07-28T12:38:44;23.10;55.70
15543;DHT22;7873;52.230;12.856;2023-07-28T12:41:11;23.00;55.50
15543;DHT22;7873;52.230;12.856;2023-07-28T12:43:38;23.10;55.40
15543;DHT22;7873;52.230;12.856;2023-07-28T12:46:05;23.10;55.50
15543;DHT22;7873;52.230;12.856;2023-07-28T12:48:32;23.10;55.20
15543;DHT22;7873;52.230;12.856;2023-07-28T12:50:59;23.10;55.40
15543;DHT22;7873;52.230;12.856;2023-07-28T12:53:27;23.10;55.50
15543;DHT22;7873;52.230;12.856;2023-07-28T12:55:54;23.10;55.40
15543;DHT22;7873;52.230;12.856;2023-07-28T12:58:21;23.10;55.40
15543;DHT22;7873;52.230;12.856;2023-07-28T13:00:47;23.10;55.20
15543;DHT22;7873;52.230;12.856;2023-07-28T13:03:14;23.10;55.20
15543;DHT22;7873;52.230;12.856;2023-07-28T13:05:41;23.20;55.10
15543;DHT22;7873;52.230;12.856;2023-07-28T13:08:08;23.20;55.10
15543;DHT22;7873;52.230;12.856;2023-07-28T13:10:36;23.20;54.90
15543;DHT22;7873;52.230;12.856;2023-07-28T13:13:03;23.20;54.80
15543;DHT22;7873;52.230;12.856;2023-07-28T13:15:30;23.20;54.70
15543;DHT22;7873;52.230;12.856;2023-07-28T13:17:56;23.30;54.70
15543;DHT22;7873;52.230;12.856;2023-07-28T13:20:23;23.30;54.60
15543;DHT22;7873;52.230;12.856;2023-07-28T13:22:50;23.30;54.60
15543;DHT22;7873;52.230;12.856;2023-07-28T13:25:16;23.30;54.60
15543;DHT22;7873;52.230;12.856;2023-07-28T13:27:44;23.30;54.50
15543;DHT22;7873;52.230;12.856;2023-07-28T13:30:11;23.30;54.50
15543;DHT22;7873;52.230;12.856;2023-07-28T13:32:38;23.30;54.50
15543;DHT22;7873;52.230;12.856;2023-07-28T13:35:05;23.30;54.50
15543;DHT22;7873;52.230;12.856;2023-07-28T13:37:33;23.30;54.40
15543;DHT22;7873;52.230;12.856;2023-07-28T13:39:59;23.40;54.20
15543;DHT22;7873;52.230;12.856;2023-07-28T13:42:26;23.40;54.50
15543;DHT22;7873;52.230;12.856;2023-07-28T13:44:54;23.40;54.50
15543;DHT22;7873;52.230;12.856;2023-07-28T13:47:21;23.50;54.90
15543;DHT22;7873;52.230;12.856;2023-07-28T13:49:47;23.60;54.30
15543;DHT22;7873;52.230;12.856;2023-07-28T13:52:14;23.60;54.80
15543;DHT22;7873;52.230;12.856;2023-07-28T13:54:41;23.60;55.10
15543;DHT22;7873;52.230;12.856;2023-07-28T13:57:07;23.70;55.50
15543;DHT22;7873;52.230;12.856;2023-07-28T13:59:34;23.70;55.70
15543;DHT22;7873;52.230;12.856;2023-07-28T14:02:02;23.80;56.00
15543;DHT22;7873;52.230;12.856;2023-07-28T14:04:29;23.70;55.70
15543;DHT22;7873;52.230;12.856;2023-07-28T14:06:56;23.70;55.70
15543;DHT22;7873;52.230;12.856;2023-07-28T14:09:24;23.70;56.00
15543;DHT22;7873;52.230;12.856;2023-07-28T14:11:50;23.70;56.00
15543;DHT22;7873;52.230;12.856;2023-07-28T14:14:17;23.70;55.80
15543;DHT22;7873;52.230;12.856;2023-07-28T14:16:44;23.80;55.80
15543;DHT22;7873;52.230;12.856;2023-07-28T14:19:12;23.80;55.70
15543;DHT22;7873;52.230;12.856;2023-07-28T14:21:38;23.70;55.90
15543;DHT22;7873;52.230;12.856;2023-07-28T14:24:05;23.70;56.30
15543;DHT22;7873;52.230;12.856;2023-07-28T14:26:32;23.70;56.20
15543;DHT22;7873;52.230;12.856;2023-07-28T14:28:58;23.70;56.00
15543;DHT22;7873;52.230;12.856;2023-07-28T14:31:25;23.70;55.90
15543;DHT22;7873;52.230;12.856;2023-07-28T14:33:52;23.80;55.70
15543;DHT22;7873;52.230;12.856;2023-07-28T14:36:20;23.80;55.40
15543;DHT22;7873;52.230;12.856;2023-07-28T14:38:47;23.90;55.50
15543;DHT22;7873;52.230;12.856;2023-07-28T14:41:13;23.90;55.50
15543;DHT22;7873;52.230;12.856;2023-07-28T14:43:40;23.80;55.50
15543;DHT22;7873;52.230;12.856;2023-07-28T14:46:07;23.70;55.80
15543;DHT22;7873;52.230;12.856;2023-07-28T14:48:33;23.60;56.50
15543;DHT22;7873;52.230;12.856;2023-07-28T14:51:01;23.70;56.80
15543;DHT22;7873;52.230;12.856;2023-07-28T14:53:29;23.70;56.60
15543;DHT22;7873;52.230;12.856;2023-07-28T14:55:57;23.70;57.20
15543;DHT22;7873;52.230;12.856;2023-07-28T14:58:24;23.70;56.60
15543;DHT22;7873;52.230;12.856;2023-07-28T15:00:51;23.80;56.50
15543;DHT22;7873;52.230;12.856;2023-07-28T15:03:18;23.80;56.50
15543;DHT22;7873;52.230;12.856;2023-07-28T15:05:45;23.90;56.30
15543;DHT22;7873;52.230;12.856;2023-07-28T15:08:12;23.90;56.40
15543;DHT22;7873;52.230;12.856;2023-07-28T15:10:41;23.80;56.20
15543;DHT22;7873;52.230;12.856;2023-07-28T15:13:07;23.80;56.20
15543;DHT22;7873;52.230;12.856;2023-07-28T15:15:34;23.80;56.10
15543;DHT22;7873;52.230;12.856;2023-07-28T15:18:01;24.00;56.30
15543;DHT22;7873;52.230;12.856;2023-07-28T15:20:28;24.10;56.30
15543;DHT22;7873;52.230;12.856;2023-07-28T15:22:54;24.10;55.70
15543;DHT22;7873;52.230;12.856;2023-07-28T15:25:21;24.00;55.50
15543;DHT22;7873;52.230;12.856;2023-07-28T15:27:49;24.00;56.10
15543;DHT22;7873;52.230;12.856;2023-07-28T15:30:16;23.90;56.70
15543;DHT22;7873;52.230;12.856;2023-07-28T15:32:42;23.90;57.30
15543;DHT22;7873;52.230;12.856;2023-07-28T15:35:09;23.90;57.60